Main page
METAR-TAF:

METAR-TAF

Airports :

Beirut, Lebanon

Beirut Air Base

latitude: 33-49N, longitude: 035-29E, elevation: 29 m

Current weather observation

The report was made 1 hour and 0 minutes ago, at 11:00 UTC
Wind 8 kt from the West/Southwest
Temperature 28°C
Humidity 70%
Pressure 1010 hPa
Visibility: 8000 m
Few clouds at a height of 2600 ft

METAR: OLBA 261100Z 24008KT 8000 FEW026 28/22 Q1010

Time: 15:00 (12:00 UTC)


TAF: missing

Weather observations and forecasts of more than 4000 airports (METAR and TAF reports).

The available stations are represented by yellow and red dots on the map.

Hover mouse over dot to see the name of the station.

Then click to see weather observations and forecasts.

To change the map : click on the green buttons with a black cross to zoom in, on the green button with a dash to zoom out, or on the green arrows for adjacent maps.


METAR-TAF: